Tiempo atmosférico en la estación meteorológica de Mieres, Asturias (172 m.)



Fecha
DESCASC
Temp. máxima en grados centígrados (hora)
DESCASC
Temp. mínima en grados centígrados (hora)
DESCASC
Temp. media en grados centígrados
DESCASC
Racha de viento máxima en m/sg (hora)
DESCASC
Velocidad máxima media en intervalos de 10 minutos(hora)
DESCASC
Precipitaciones diarias en mm
DESCASC
Precipitaciones de 00:00 a 06:00 en mm
DESCASC
Precipitaciones de 06:00 a 12:00 en mm
DESCASC
Precipitaciones de 12:00 a 18:00 en mm
DESCASC
Precipitaciones de 18:00 a 24:00 en mm
DESCASC
19-04-2018 25.6 (15:00) 8.3 (07:30) 17 7.78 (16:20) 4.44 (16:20) 0.2 0 0 0.2 0
18-04-2018 26.5 (18:30) 7.3 (07:50) 16.9 7.5 (15:00) 3.61 (14:40) 0 0 0 0 0
17-04-2018 22.3 (15:00) 6.3 (08:00) 14.3 6.11 (15:10) 3.33 (16:40) 0 0 0 0 0
16-04-2018 19 (17:10) 8 (08:20) 13.5 6.39 (16:00) 3.06 (16:10) 2 2 0 0 0
15-04-2018 18.9 (13:20) 9.9 (00:00) 14.4 6.94 (14:00) 3.61 (17:00) 5.6 0 0 0 5.6
14-04-2018 19.2 (15:00) 8.5 (00:00) 13.9 5.56 (16:30) 2.78 (16:30) 0.2 0.2 0 0 0
13-04-2018 12.9 (12:20) 10 (00:00) 11.4 4.44 (12:50) 2.22 (12:50) 22.4 0 4.2 11 7.2
12-04-2018 18.8 (17:10) 5.3 (00:00) 12 9.44 (18:40) 4.17 (18:10) 0 0 0 0 0
11-04-2018 13.6 (16:30) 5.2 (00:00) 9.4 7.78 (16:30) 3.61 (16:20) 1.8 1 0.4 0.2 0.2
10-04-2018 11.6 (13:30) 6.1 (00:00) 8.9 6.94 (14:00) 3.89 (14:00) 7.2 2.4 3.6 0.8 0.4
09-04-2018 14 (16:40) 6.5 (00:00) 10.3 7.78 (16:30) 3.61 (16:30) 10.6 1.4 6 3.2 0
08-04-2018 17.3 (14:30) 4.9 (00:00) 11.1 6.67 (16:10) 3.89 (16:10) 2.6 0 0 0 2.6
07-04-2018 16.8 (15:40) 8.6 (00:00) 12.7 7.22 (20:30) 3.33 (20:30) 8.8 0.8 0 1.4 6.6
06-04-2018 22.6 (13:30) 9.3 (00:00) 16 11.39 (12:00) 5 (11:50) 0.8 0 0 0 0.8
05-04-2018 20.3 (18:10) 5.1 (00:00) 12.7 12.78 (19:30) 5 (19:20) 0 0 0 0 0
04-04-2018 18.8 (14:40) 7 (00:00) 12.9 10.83 (15:30) 5 (13:10) 1.6 0 0 0.6 1
03-04-2018 19.6 (16:10) 9.4 (00:00) 14.5 14.17 (17:40) 4.17 (20:30) 0 0 0 0 0
02-04-2018 20.4 (17:50) 8.9 (00:00) 14.6 9.72 (14:00) 4.17 (19:20) 0 0 0 0 0
01-04-2018 19.6 (19:00) 7 (00:00) 13.3 9.72 (17:10) 3.89 (14:50) 0 0 0 0 0
31-03-2018 14.9 (16:10) 5.2 (00:00) 10 14.17 (01:30) 4.72 (13:20) 11.8 10.4 0.2 0 1.2
30-03-2018 15.3 (16:20) 3.5 (00:00) 9.4 15.28 (15:00) 5.28 (23:10) 0.8 0.2 0 0 0.6
29-03-2018 16.1 (15:10) 5.1 (00:00) 10.6 7.5 (15:20) 3.33 (17:30) 2 0.4 0 0.2 1.4
28-03-2018 17.2 (15:10) 6.7 (00:00) 12 9.17 (17:00) 3.33 (17:00) 7.6 0 0 2.6 5
27-03-2018 22.1 (17:30) 5.6 (00:00) 13.9 8.61 (16:20) 3.61 (16:00) 0 0 0 0 0
26-03-2018 16 (16:10) 3.9 (00:00) 10 5.28 (22:40) 2.22 (13:50) 1.6 1.2 0 0 0.4
25-03-2018 8.8 (09:10) 5.5 (00:00) 7.2 8.33 (20:50) 3.61 (09:30) 36.8 0 10 23.8 3
24-03-2018 9.2 (01:20) 5.5 (00:00) 7.3 17.22 (07:30) 6.11 (06:40) 37.8 3.4 14.6 16.2 3.6
23-03-2018 18.5 (16:10) 6.3 (00:00) 12.4 15 (20:30) 5.28 (19:50) 5.6 2 0.2 0 3.4
22-03-2018 16.8 (17:50) 0.4 (00:00) 8.6 4.72 (16:30) 2.22 (11:10) 0 0 0 0 0

Gráficas

Temp. máximas Temp. mínimas Temp. medias Precipitaciones Rachas de viento máximas Velocidades máximas media en intervalos de 10 minutos

Datos horarios

Fecha y hora oficial Temperatura (ºC) Velocidad del viento (km/h) Dirección del viento Racha (km/h) Dirección de racha Precipitación (mm) Presión (hPa) Tendencia (hPa) Humedad (%)
2018-04-20 23:00:00 14.1 0 Calma 7 Sudoeste 0 -- -- 91
2018-04-20 22:00:00 15.3 2 Nordeste 9 Nordeste 0 -- -- 86
2018-04-20 21:00:00 16.8 4 Este 15 Nordeste 0 -- -- 81
2018-04-20 20:00:00 18.3 9 Nordeste 20 Norte 0 -- -- 75
2018-04-20 19:00:00 19.6 12 Norte 24 Norte 0 -- -- 71
2018-04-20 18:00:00 20.7 13 Norte 26 Nordeste 0 -- -- 68
2018-04-20 17:00:00 21.7 14 Norte 24 Norte 0 -- -- 66
2018-04-20 16:00:00 22.3 12 Norte 22 Nordeste 0 -- -- 63
2018-04-20 15:00:00 22 10 Norte 21 Nordeste 0 -- -- 65
2018-04-20 14:00:00 20.4 10 Nordeste 19 Nordeste 0 -- -- 68
2018-04-20 13:00:00 18.5 13 Nordeste 22 Nordeste 0 -- -- 75
2018-04-20 12:00:00 16.8 10 Nordeste 17 Norte 0 -- -- 79
2018-04-20 11:00:00 13.9 4 Sudoeste 10 Sudoeste 0 -- -- 89
2018-04-20 10:00:00 12.5 3 Sudoeste 7 Sudoeste 0 -- -- 94
2018-04-20 09:00:00 11.9 0 Calma 5 Oeste 0 -- -- 96
2018-04-20 08:00:00 11.6 0 Calma 7 Norte 0 -- -- 97
2018-04-20 07:00:00 11.3 4 Nordeste 8 Nordeste 0 -- -- 98
2018-04-20 06:00:00 10.6 0 Calma 3 Este 0 -- -- 97
2018-04-20 05:00:00 11.1 0 Calma 5 Este 0 -- -- 97
2018-04-20 04:00:00 11.6 0 Calma 5 Nordeste 0 -- -- 95
2018-04-20 03:00:00 12.2 3 Nordeste 5 Nordeste 0 -- -- 93
2018-04-20 02:00:00 12.8 2 Nordeste 4 Nordeste 0 -- -- 92
2018-04-20 01:00:00 13.3 2 Nordeste 4 Nordeste 0 -- -- 89
2018-04-20 00:00:00 14.3 0 Calma 5 Norte 0 -- -- 84
2018-04-19 23:00:00 15.5 2 Este 6 Nordeste 0 -- -- 78
2018-04-19 22:00:00 16.5 4 Nordeste 15 Norte 0 -- -- 74
2018-04-19 21:00:00 17.7 9 Norte 17 Norte 0 -- -- 70
2018-04-19 20:00:00 19.9 10 Norte 22 Nordeste 0 -- -- 64
2018-04-19 19:00:00 20.5 10 Norte 21 Norte 0 -- -- 61
2018-04-19 18:00:00 21.4 9 Norte 20 Norte 0 -- -- 59
2018-04-19 17:00:00 21.1 11 Norte 28 Nordeste 0 -- -- 60
2018-04-19 16:00:00 23.8 13 Norte 27 Norte 0.2 -- -- 53
2018-04-19 15:00:00 25.6 8 Norte 23 Norte 0 -- -- 48
2018-04-19 14:00:00 25.1 9 Nordeste 18 Nordeste 0 -- -- 49
2018-04-19 13:00:00 23.3 8 Norte 17 Nordeste 0 -- -- 48
2018-04-19 12:00:00 20.2 3 Sudoeste 5 Sudoeste 0 -- -- 55
2018-04-19 11:00:00 17 4 Este 6 Este 0 -- -- 65
2018-04-19 10:00:00 13.5 0 Calma 3 Norte 0 -- -- 79
2018-04-19 09:00:00 9.4 0 Calma 4 Nordeste 0 -- -- 99
2018-04-19 08:00:00 8.4 0 Calma 4 Norte 0 -- -- 98
2018-04-19 07:00:00 8.4 0 Calma 3 Nordeste 0 -- -- 97
2018-04-19 06:00:00 8.8 0 Calma 2 Sudeste 0 -- -- 96
2018-04-19 05:00:00 9.1 0 Calma 3 Nordeste 0 -- -- 96
2018-04-19 04:00:00 9.6 2 Nordeste 3 Nordeste 0 -- -- 94
2018-04-19 03:00:00 10.3 0 Calma 4 Nordeste 0 -- -- 92
2018-04-19 02:00:00 11 0 Calma 4 Nordeste 0 -- -- 90
2018-04-19 01:00:00 11.9 0 Calma 4 Nordeste 0 -- -- 84
2018-04-19 00:00:00 13.2 0 Calma 3 Nordeste 0 -- -- 80
2018-04-18 23:00:00 15.6 0 Calma 14 Oeste 0 -- -- 68
2018-04-18 22:00:00 17.5 4 Noroeste 21 Norte 0 -- -- 54
2018-04-18 21:00:00 19.5 12 Nordeste 21 Norte 0 -- -- 53
2018-04-18 20:00:00 23.5 8 Norte 19 Norte 0 -- -- 43
2018-04-18 19:00:00 26.3 10 Norte 16 Norte 0 -- -- 43
2018-04-18 18:00:00 25.7 12 Noroeste 20 Noroeste 0 -- -- 44
2018-04-18 17:00:00 25.9 10 Norte 21 Nordeste 0 -- -- 44
2018-04-18 16:00:00 25.8 12 Norte 22 Norte 0 -- -- 47
2018-04-18 15:00:00 25 12 Norte 27 Norte 0 -- -- 50
2018-04-18 14:00:00 25 13 Norte 24 Norte 0 -- -- 44
2018-04-18 13:00:00 24.4 4 Sudoeste 22 Norte 0 -- -- 42
2018-04-18 12:00:00 21.1 5 Sudoeste 10 Noroeste 0 -- -- 52
2018-04-18 11:00:00 15.9 0 Calma 6 Sudoeste 0 -- -- 69
2018-04-18 10:00:00 11.8 0 Calma 4 Sur 0 -- -- 87
2018-04-18 09:00:00 8.5 0 Calma 4 Este 0 -- -- 100
2018-04-18 08:00:00 7.3 0 Calma 3 Nordeste 0 -- -- 99
2018-04-18 07:00:00 7.6 0 Calma 3 Nordeste 0 -- -- 99
2018-04-18 06:00:00 8.1 0 Calma 4 Sudeste 0 -- -- 98
2018-04-18 05:00:00 8.4 0 Calma 3 Nordeste 0 -- -- 98
2018-04-18 04:00:00 8.9 0 Calma 3 Nordeste 0 -- -- 97
2018-04-18 03:00:00 9.4 0 Calma 3 Nordeste 0 -- -- 96
2018-04-18 02:00:00 10 0 Calma 3 Nordeste 0 -- -- 95
2018-04-18 01:00:00 10.6 0 Calma 4 Nordeste 0 -- -- 92
2018-04-18 00:00:00 11.5 0 Calma 4 Norte 0 -- -- 86
2018-04-17 23:00:00 12.9 2 Nordeste 4 Nordeste 0 -- -- 80
2018-04-17 22:00:00 14.9 0 Calma 9 Norte 0 -- -- 74
2018-04-17 21:00:00 17.9 5 Norte 10 Norte 0 -- -- 56
2018-04-17 20:00:00 20.1 5 Nordeste 17 Norte 0 -- -- 50
2018-04-17 19:00:00 21.2 9 Norte 17 Norte 0 -- -- 48
2018-04-17 18:00:00 21.5 10 Norte 19 Norte 0 -- -- 44
2018-04-17 17:00:00 22.2 9 Norte 22 Norte 0 -- -- 44
2018-04-17 16:00:00 22.2 12 Norte 22 Norte 0 -- -- 48
2018-04-17 15:00:00 22.3 9 Norte 21 Nordeste 0 -- -- 50
2018-04-17 14:00:00 21.6 5 Oeste 18 Noroeste 0 -- -- 51
2018-04-17 13:00:00 20.4 6 Noroeste 16 Nordeste 0 -- -- 53
2018-04-17 12:00:00 18.7 3 Este 14 Nordeste 0 -- -- 57
2018-04-17 11:00:00 14.3 0 Calma 4 Sudoeste 0 -- -- 69
2018-04-17 10:00:00 10.9 0 Calma 4 Nordeste 0 -- -- 85
2018-04-17 09:00:00 7.5 2 Nordeste 5 Nordeste 0 -- -- 100
2018-04-17 08:00:00 6.3 0 Calma 3 Nordeste 0 -- -- 99
2018-04-17 07:00:00 6.8 0 Calma 4 Norte 0 -- -- 99
2018-04-17 06:00:00 7.2 2 Nordeste 4 Nordeste 0 -- -- 98
2018-04-17 05:00:00 7.7 0 Calma 2 Este 0 -- -- 98
2018-04-17 04:00:00 8.2 0 Calma 3 Oeste 0 -- -- 98
2018-04-17 03:00:00 8.8 0 Calma 6 Sur 0 -- -- 97
2018-04-17 02:00:00 9.6 0 Calma 5 Nordeste 0 -- -- 96
2018-04-17 01:00:00 10.2 0 Calma 5 Norte 0 -- -- 95
2018-04-17 00:00:00 11 2 Sudoeste 5 Sudoeste 0 -- -- 93
2018-04-16 23:00:00 11.8 0 Calma 4 Nordeste 0 -- -- 88
2018-04-16 22:00:00 13.7 0 Calma 10 Oeste 0 -- -- 79
2018-04-16 21:00:00 15.8 4 Noroeste 11 Noroeste 0 -- -- 67
2018-04-16 20:00:00 18 5 Norte 11 Noroeste 0 -- -- 59
2018-04-16 19:00:00 18.5 5 Noroeste 19 Norte 0 -- -- 57
2018-04-16 18:00:00 18.6 8 Norte 19 Norte 0 -- -- 56
2018-04-16 17:00:00 18.7 11 Norte 22 Norte 0 -- -- 55
2018-04-16 16:00:00 18.2 10 Norte 23 Nordeste 0 -- -- 57
2018-04-16 15:00:00 18.2 5 Norte 19 Nordeste 0 -- -- 55
2018-04-16 14:00:00 17 8 Noroeste 18 Nordeste 0 -- -- 54
2018-04-16 13:00:00 16.5 5 Nordeste 14 Nordeste 0 -- -- 57
2018-04-16 12:00:00 15.2 6 Nordeste 14 Norte 0 -- -- 70
2018-04-16 11:00:00 12.3 2 Noroeste 7 Sudoeste 0 -- -- 84
2018-04-16 10:00:00 10 3 Sudoeste 5 Sudoeste 0 -- -- 100
2018-04-16 09:00:00 8.3 0 Calma 4 Sur 0 -- -- 100
2018-04-16 08:00:00 8.1 0 Calma 3 Nordeste 0 -- -- 99
2018-04-16 07:00:00 8.7 0 Calma 4 Nordeste 0 -- -- 99
2018-04-16 06:00:00 8.7 0 Calma 5 Nordeste 0 -- -- 99
2018-04-16 05:00:00 9.5 0 Calma 3 Nordeste 0 -- -- 99
2018-04-16 04:00:00 9.5 0 Calma 3 Nordeste 0 -- -- 99
2018-04-16 03:00:00 9.7 0 Calma 4 Norte 0 -- -- 99
2018-04-16 02:00:00 9.7 0 Calma 4 Nordeste 1.8 -- -- 98
2018-04-16 01:00:00 9.9 0 Calma 5 Nordeste 0.2 -- -- 98
2018-04-16 00:00:00 9.9 0 Calma 2 Nordeste 0.6 -- -- 97
2018-04-15 23:00:00 10.1 0 Calma 6 Nordeste 2 -- -- 96
2018-04-15 22:00:00 10.5 3 Norte 12 Norte 0.6 -- -- 95
2018-04-15 21:00:00 10.8 2 Nordeste 5 Sudoeste 2.2 -- -- 95
2018-04-15 20:00:00 11.4 3 Sudoeste 12 Nordeste 0.2 -- -- 91
2018-04-15 19:00:00 12.4 4 Norte 11 Norte 0 -- -- 81
2018-04-15 18:00:00 13.1 10 Norte 22 Norte 0 -- -- 75
2018-04-15 17:00:00 14.6 13 Nordeste 24 Este 0 -- -- 68
2018-04-15 16:00:00 16.4 8 Norte 21 Norte 0 -- -- 57
2018-04-15 15:00:00 17 8 Nordeste 22 Nordeste 0 -- -- 62
2018-04-15 14:00:00 17.4 11 Norte 25 Noroeste 0 -- -- 63
2018-04-15 13:00:00 18.3 8 Norte 19 Nordeste 0 -- -- 59
2018-04-15 12:00:00 16.2 5 Norte 14 Nordeste 0 -- -- 69
2018-04-15 11:00:00 15.8 4 Sudeste 9 Este 0 -- -- 72
2018-04-15 10:00:00 12.7 2 Nordeste 4 Nordeste 0 -- -- 93
2018-04-15 09:00:00 10.8 0 Calma 6 Nordeste 0 -- -- 99
2018-04-15 08:00:00 10.5 0 Calma 5 Nordeste 0 -- -- 99
2018-04-15 07:00:00 10.7 0 Calma 3 Nordeste 0 -- -- 99
2018-04-15 06:00:00 10.9 0 Calma 3 Este 0 -- -- 98
2018-04-15 05:00:00 11.2 0 Calma 3 Oeste 0 -- -- 98
2018-04-15 04:00:00 11.1 0 Calma 4 Nordeste 0 -- -- 97
2018-04-15 03:00:00 11.4 0 Calma 4 Sudoeste 0 -- -- 97
2018-04-15 02:00:00 11.4 0 Calma 6 Nordeste 0 -- -- 96
2018-04-15 01:00:00 11.6 0 Calma 4 Nordeste 0 -- -- 94
2018-04-15 00:00:00 11.4 0 Calma 4 Nordeste 0 -- -- 92
2018-04-14 23:00:00 11.4 0 Calma 4 Norte 0 -- -- 90
2018-04-14 22:00:00 12.5 0 Calma 3 Nordeste 0 -- -- 84
2018-04-14 21:00:00 14.9 0 Calma 10 Norte 0 -- -- 77
2018-04-14 20:00:00 17.3 6 Norte 15 Norte 0 -- -- 60
2018-04-14 19:00:00 18.2 7 Norte 19 Nordeste 0 -- -- 59
2018-04-14 18:00:00 18.1 8 Norte 18 Norte 0 -- -- 60
2018-04-14 17:00:00 18.1 9 Norte 20 Norte 0 -- -- 64
2018-04-14 16:00:00 18.2 8 Nordeste 18 Norte 0 -- -- 65
2018-04-14 15:00:00 19.2 8 Norte 19 Norte 0 -- -- 58
2018-04-14 14:00:00 18 7 Oeste 17 Nordeste 0 -- -- 62
2018-04-14 13:00:00 16.6 6 Norte 14 Nordeste 0 -- -- 65
2018-04-14 12:00:00 14.7 2 Sudeste 7 Este 0 -- -- 70
2018-04-14 11:00:00 12.2 3 Sudoeste 12 Nordeste 0 -- -- 81
2018-04-14 10:00:00 10.7 4 Norte 10 Nordeste 0 -- -- 85
2018-04-14 09:00:00 8.5 3 Nordeste 6 Nordeste 0 -- -- 99
2018-04-14 08:00:00 8.6 2 Nordeste 5 Nordeste 0 -- -- 99
2018-04-14 07:00:00 8.7 2 Nordeste 4 Este 0 -- -- 99
2018-04-14 06:00:00 9 0 Calma 10 Nordeste 0 -- -- 99
2018-04-14 05:00:00 9.5 3 Este 7 Este 0 -- -- 100
2018-04-14 04:00:00 9.9 0 Calma 6 Este 0 -- -- 99
2018-04-14 03:00:00 10 2 Nordeste 6 Norte 0 -- -- 99
2018-04-14 02:00:00 10.1 0 Calma 4 Nordeste 0 -- -- 99
2018-04-14 01:00:00 10.1 0 Calma 6 Nordeste 0.2 -- -- 99
2018-04-14 00:00:00 10.2 0 Calma 3 Norte 1.6 -- -- 99
2018-04-13 23:00:00 10.2 0 Calma 6 Nordeste 0.6 -- -- 98
2018-04-13 22:00:00 10.3 2 Norte 6 Este 0.6 -- -- 98
2018-04-13 21:00:00 10.4 4 Nordeste 10 Nordeste 1 -- -- 97
2018-04-13 20:00:00 10.6 2 Este 9 Este 2.6 -- -- 96
2018-04-13 19:00:00 11.1 2 Este 4 Nordeste 0.8 -- -- 96
2018-04-13 18:00:00 10.9 0 Calma 6 Sudoeste 1.2 -- -- 95
2018-04-13 17:00:00 11.1 0 Calma 3 Este 0 -- -- 94
2018-04-13 16:00:00 10.6 0 Calma 3 Sur 1 -- -- 94
2018-04-13 15:00:00 10.3 0 Calma 9 Nordeste 6.6 -- -- 94
2018-04-13 14:00:00 11.4 4 Norte 10 Sudoeste 1.8 -- -- 91
2018-04-13 13:00:00 12 5 Noroeste 16 Noroeste 0.4 -- -- 88
2018-04-13 12:00:00 12.4 2 Sur 6 Sudoeste 0 -- -- 89
2018-04-13 11:00:00 11.2 0 Calma 2 Este 0.2 -- -- 95
2018-04-13 10:00:00 10.5 0 Calma 4 Nordeste 2.2 -- -- 96
2018-04-13 09:00:00 10.6 0 Calma 6 Norte 1.8 -- -- 94
2018-04-13 08:00:00 10.6 0 Calma 5 Nordeste 0 -- -- 90
2018-04-13 07:00:00 10.5 0 Calma 4 Nordeste 0 -- -- 91
2018-04-13 06:00:00 10.4 2 Nordeste 4 Nordeste 0 -- -- 91
2018-04-13 05:00:00 10.5 0 Calma 9 Nordeste 0 -- -- 89
2018-04-13 04:00:00 10 0 Calma 3 Sur 0 -- -- 91
2018-04-13 03:00:00 10.1 0 Calma 3 Este 0 -- -- 90
2018-04-13 02:00:00 10.3 0 Calma 3 Sudoeste 0 -- -- 90
2018-04-13 01:00:00 10.8 0 Calma 3 Nordeste 0 -- -- 87
2018-04-13 00:00:00 12 2 Nordeste 14 Nordeste 0 -- -- 81
2018-04-12 23:00:00 12.7 8 Nordeste 15 Nordeste 0 -- -- 77
2018-04-12 22:00:00 13.7 7 Nordeste 11 Norte 0 -- -- 66
2018-04-12 21:00:00 15.3 2 Sur 21 Sudoeste 0 -- -- 53
2018-04-12 20:00:00 16.2 11 Sudoeste 24 Sudoeste 0 -- -- 46
2018-04-12 19:00:00 17.9 7 Sudoeste 34 Sudoeste 0 -- -- 43
2018-04-12 18:00:00 18.1 14 Sudoeste 31 Sudoeste 0 -- -- 42
2018-04-12 17:00:00 18.5 12 Sudoeste 30 Sur 0 -- -- 42
2018-04-12 16:00:00 18.1 8 Oeste 30 Sudoeste 0 -- -- 39
2018-04-12 15:00:00 18 6 Este 14 Este 0 -- -- 44
2018-04-12 14:00:00 17.1 7 Este 21 Nordeste 0 -- -- 48
2018-04-12 13:00:00 15.8 8 Norte 15 Nordeste 0 -- -- 55
2018-04-12 12:00:00 13.8 2 Sudeste 11 Este 0 -- -- 62
2018-04-12 11:00:00 10.3 2 Noroeste 8 Norte 0 -- -- 76
2018-04-12 10:00:00 7.7 3 Sudoeste 9 Nordeste 0 -- -- 90
2018-04-12 09:00:00 6.4 2 Noroeste 8 Sur 0 -- -- 94
2018-04-12 08:00:00 5.8 0 Calma 8 Sur 0 -- -- 98
2018-04-12 07:00:00 5.3 0 Calma 7 Nordeste 0 -- -- 99
2018-04-12 06:00:00 5.7 0 Calma 4 Norte 0 -- -- 98
2018-04-12 05:00:00 6.4 0 Calma 7 Nordeste 0 -- -- 97
2018-04-12 04:00:00 7.3 0 Calma 5 Nordeste 0 -- -- 96
2018-04-12 03:00:00 8.8 2 Nordeste 7 Sudeste 0 -- -- 94
2018-04-12 02:00:00 9.1 3 Nordeste 5 Norte 0 -- -- 95
2018-04-12 01:00:00 9.3 0 Calma 2 Noroeste 0 -- -- 95
2018-04-12 00:00:00 9.6 0 Calma 3 Sudoeste 0 -- -- 94
2018-04-11 23:00:00 9.8 0 Calma 5 Oeste 0 -- -- 93
2018-04-11 22:00:00 10.3 0 Calma 6 Norte 0 -- -- 89
2018-04-11 21:00:00 10.9 3 Norte 6 Noroeste 0 -- -- 86
2018-04-11 20:00:00 11.3 2 Norte 17 Noroeste 0.2 -- -- 81
2018-04-11 19:00:00 11.5 7 Oeste 17 Sudoeste 0 -- -- 79
2018-04-11 18:00:00 11.6 3 Noroeste 19 Norte 0 -- -- 81
2018-04-11 17:00:00 12.3 7 Norte 28 Sudoeste 0.2 -- -- 72
2018-04-11 16:00:00 12.2 9 Sudoeste 25 Sudoeste 0 -- -- 67
2018-04-11 15:00:00 12.2 5 Oeste 23 Oeste 0 -- -- 65
2018-04-11 14:00:00 11.9 5 Oeste 19 Oeste 0 -- -- 67
2018-04-11 13:00:00 12 8 Sudoeste 25 Oeste 0 -- -- 60
2018-04-11 12:00:00 11.4 9 Sudoeste 25 Sudoeste 0 -- -- 62
2018-04-11 11:00:00 9.1 3 Este 11 Nordeste 0 -- -- 82
2018-04-11 10:00:00 6.9 5 Nordeste 13 Nordeste 0 -- -- 93
2018-04-11 09:00:00 5.8 3 Nordeste 13 Nordeste 0 -- -- 97
2018-04-11 08:00:00 5.4 2 Nordeste 10 Nordeste 0 -- -- 97
2018-04-11 07:00:00 5.4 0 Calma 9 Este 0.4 -- -- 98
2018-04-11 06:00:00 5.3 0 Calma 7 Nordeste 0.4 -- -- 98
2018-04-11 05:00:00 5.4 3 Nordeste 6 Nordeste 0.6 -- -- 97
2018-04-11 04:00:00 5.3 3 Sudoeste 12 Noroeste 0 -- -- 96
2018-04-11 03:00:00 5.7 2 Nordeste 6 Noroeste 0 -- -- 94
2018-04-11 02:00:00 6 0 Calma 7 Oeste 0 -- -- 89
2018-04-11 01:00:00 6.2 8 Sudoeste 20 Oeste 0 -- -- 85
2018-04-11 00:00:00 6.1 2 Nordeste 8 Nordeste 0 -- -- 94
2018-04-10 23:00:00 6.4 4 Nordeste 7 Nordeste 0 -- -- 91
2018-04-10 22:00:00 7.3 4 Nordeste 5 Nordeste 0 -- -- 89
2018-04-10 21:00:00 8.1 2 Sudoeste 6 Noroeste 0 -- -- 84
2018-04-10 20:00:00 8.9 0 Calma 11 Sudoeste 0 -- -- 72
2018-04-10 19:00:00 8.6 4 Sudoeste 12 Sudoeste 0.4 -- -- 82
2018-04-10 18:00:00 8.9 4 Sur 13 Oeste 0 -- -- 79
2018-04-10 17:00:00 9.6 2 Sudeste 21 Nordeste 0.2 -- -- 72
2018-04-10 16:00:00 10.6 6 Nordeste 22 Nordeste 0.2 -- -- 67
2018-04-10 15:00:00 10.1 6 Norte 19 Norte 0.4 -- -- 67
2018-04-10 14:00:00 9.9 14 Noroeste 25 Noroeste 0 -- -- 63
2018-04-10 13:00:00 10.7 6 Norte 14 Nordeste 0 -- -- 70
2018-04-10 12:00:00 9.1 4 Nordeste 19 Oeste 0 -- -- 75
2018-04-10 11:00:00 7.9 9 Norte 23 Noroeste 0.2 -- -- 79
2018-04-10 10:00:00 9.1 6 Nordeste 13 Nordeste 0 -- -- 91
2018-04-10 09:00:00 7.4 0 Calma 4 Oeste 0.2 -- -- 99
2018-04-10 08:00:00 7.3 0 Calma 3 Sudoeste 1.2 -- -- 99
2018-04-10 07:00:00 7.2 0 Calma 4 Nordeste 2 -- -- 99
2018-04-10 06:00:00 7.1 0 Calma 5 Sudoeste 0.8 -- -- 98
2018-04-10 05:00:00 7.1 0 Calma 4 Nordeste 1 -- -- 97
2018-04-10 04:00:00 7.3 2 Este 5 Norte 0.6 -- -- 94
2018-04-10 03:00:00 7.4 0 Calma 6 Norte 0 -- -- 91
2018-04-10 02:00:00 6.9 0 Calma 4 Nordeste 0 -- -- 96
2018-04-10 01:00:00 6.7 3 Este 7 Nordeste 0 -- -- 96
2018-04-10 00:00:00 6.5 0 Calma 3 Sudeste 0 -- -- 96
2018-04-09 23:00:00 6.9 0 Calma 6 Nordeste 0 -- -- 94
2018-04-09 22:00:00 7.9 3 Nordeste 5 Nordeste 0 -- -- 88
2018-04-09 21:00:00 10.4 0 Calma 13 Noroeste 0 -- -- 76
2018-04-09 20:00:00 13.1 4 Noroeste 17 Sudoeste 0 -- -- 59
2018-04-09 19:00:00 13.3 6 Noroeste 17 Norte 0 -- -- 59
2018-04-09 18:00:00 12.9 6 Sudoeste 12 Noroeste 0 -- -- 73
2018-04-09 17:00:00 13.4 5 Noroeste 28 Sudoeste 0 -- -- 64
2018-04-09 16:00:00 11.8 5 Sudoeste 23 Norte 1.2 -- -- 78
2018-04-09 15:00:00 11.8 9 Sudoeste 18 Sudoeste 0 -- -- 78
2018-04-09 14:00:00 10.4 4 Este 10 Sudoeste 0.2 -- -- 91
2018-04-09 13:00:00 9.8 0 Calma 8 Sudoeste 1.8 -- -- 91
2018-04-09 12:00:00 10 5 Oeste 13 Oeste 2.8 -- -- 88
2018-04-09 11:00:00 10.1 4 Sudoeste 9 Sur 0 -- -- 94
2018-04-09 10:00:00 10.1 3 Sudoeste 11 Noroeste 0.4 -- -- 94
2018-04-09 09:00:00 9.9 4 Oeste 14 Oeste 0 -- -- 96
2018-04-09 08:00:00 9.6 3 Oeste 6 Sudoeste 0.4 -- -- 98
2018-04-09 07:00:00 9.6 4 Oeste 7 Oeste 2.4 -- -- 97
2018-04-09 06:00:00 9.7 2 Sudoeste 9 Sur 0.8 -- -- 97
2018-04-09 05:00:00 9.6 3 Sudoeste 8 Sudoeste 0.4 -- -- 98
2018-04-09 04:00:00 9.6 0 Calma 4 Sudoeste 0.2 -- -- 98
2018-04-09 03:00:00 9.6 0 Calma 2 Sur 0 -- -- 98
2018-04-09 02:00:00 9.6 0 Calma 2 Sudoeste 0 -- -- 97
2018-04-09 01:00:00 9.7 0 Calma 3 Sur 0 -- -- 97
2018-04-09 00:00:00 9.8 2 Sudoeste 4 Sudoeste 0.2 -- -- 96
2018-04-08 23:00:00 10 0 Calma 4 Oeste 1.6 -- -- 96
2018-04-08 22:00:00 10.6 0 Calma 6 Sudoeste 0.6 -- -- 94
2018-04-08 21:00:00 10.9 3 Sudoeste 10 Sudoeste 0.2 -- -- 89
2018-04-08 20:00:00 12.5 6 Sudoeste 19 Oeste 0 -- -- 79
2018-04-08 19:00:00 13.6 2 Sudoeste 14 Oeste 0 -- -- 68
2018-04-08 18:00:00 15.5 7 Noroeste 15 Oeste 0 -- -- 67
2018-04-08 17:00:00 15.5 8 Norte 24 Noroeste 0 -- -- 62
2018-04-08 16:00:00 16.3 10 Nordeste 22 Nordeste 0 -- -- 62
2018-04-08 15:00:00 16.3 6 Oeste 22 Oeste 0 -- -- 58
2018-04-08 14:00:00 16.6 7 Norte 18 Nordeste 0 -- -- 52
2018-04-08 13:00:00 16.8 7 Norte 15 Nordeste 0 -- -- 51
2018-04-08 12:00:00 15 5 Nordeste 8 Nordeste 0 -- -- 58
2018-04-08 11:00:00 11.3 0 Calma 6 Nordeste 0 -- -- 79
2018-04-08 10:00:00 8 0 Calma 4 Norte 0 -- -- 95
2018-04-08 09:00:00 5.3 0 Calma 3 Norte 0 -- -- 99
2018-04-08 08:00:00 5.2 0 Calma 4 Noroeste 0 -- -- 97
2018-04-08 07:00:00 6.3 0 Calma 9 Nordeste 0 -- -- 96
2018-04-08 06:00:00 6.6 2 Norte 6 Sur 0 -- -- 96
2018-04-08 05:00:00 6.7 0 Calma 6 Sudoeste 0 -- -- 96
2018-04-08 04:00:00 6.7 2 Sur 10 Sudeste 0 -- -- 98
2018-04-08 03:00:00 6.8 0 Calma 6 Oeste 0 -- -- 99
2018-04-08 02:00:00 7.1 0 Calma 7 Sur 0 -- -- 98
2018-04-08 01:00:00 7.7 0 Calma 5 Nordeste 0 -- -- 97
2018-04-08 00:00:00 8.6 3 Sudeste 10 Este 0.2 -- -- 96
2018-04-07 23:00:00 9.1 2 Este 11 Nordeste 0.2 -- -- 96
2018-04-07 22:00:00 9.4 3 Este 9 Oeste 4.2 -- -- 94
2018-04-07 21:00:00 10.5 4 Noroeste 26 Noroeste 2 -- -- 86
2018-04-07 20:00:00 13.7 0 Calma 10 Este 0 -- -- 73
2018-04-07 19:00:00 14.4 2 Este 11 Nordeste 0 -- -- 64
2018-04-07 18:00:00 13.9 4 Oeste 13 Nordeste 1.4 -- -- 79
2018-04-07 17:00:00 15 4 Nordeste 15 Norte 0 -- -- 65
2018-04-07 16:00:00 16.5 7 Norte 19 Norte 0 -- -- 54
2018-04-07 15:00:00 16 4 Norte 18 Norte 0 -- -- 60
2018-04-07 14:00:00 15.5 3 Norte 14 Nordeste 0 -- -- 64
2018-04-07 13:00:00 14.3 9 Nordeste 16 Nordeste 0 -- -- 74
2018-04-07 12:00:00 12.4 2 Sudeste 6 Sur 0 -- -- 81
2018-04-07 11:00:00 11.1 2 Sur 6 Sudoeste 0 -- -- 91
2018-04-07 10:00:00 9.9 2 Sudeste 8 Sudeste 0 -- -- 99
2018-04-07 09:00:00 9.2 0 Calma 6 Norte 0 -- -- 99
2018-04-07 08:00:00 9.1 0 Calma 4 Nordeste 0 -- -- 99
2018-04-07 07:00:00 9.2 0 Calma 3 Norte 0 -- -- 98
2018-04-07 06:00:00 9.4 2 Nordeste 5 Nordeste 0 -- -- 98
2018-04-07 05:00:00 9.7 3 Nordeste 4 Nordeste 0 -- -- 97
2018-04-07 04:00:00 10.1 0 Calma 3 Sudeste 0 -- -- 97
2018-04-07 03:00:00 10.2 0 Calma 6 Nordeste 0.2 -- -- 95
2018-04-07 02:00:00 10.4 2 Sur 13 Noroeste 0.2 -- -- 95
2018-04-07 01:00:00 10.4 2 Oeste 5 Sur 0.4 -- -- 95
2018-04-07 00:00:00 10.6 2 Sudeste 9 Sudoeste 0.4 -- -- 93
2018-04-06 23:00:00 10.9 0 Calma 10 Norte 0.2 -- -- 90
2018-04-06 22:00:00 11.2 4 Norte 15 Noroeste 0 -- -- 87
2018-04-06 21:00:00 11.9 5 Norte 11 Norte 0 -- -- 84
2018-04-06 20:00:00 12.4 0 Calma 7 Nordeste 0.2 -- -- 82
2018-04-06 19:00:00 13.2 4 Norte 18 Nordeste 0 -- -- 76
2018-04-06 18:00:00 14.2 6 Norte 21 Norte 0 -- -- 66
2018-04-06 17:00:00 15.3 8 Norte 22 Norte 0 -- -- 61
2018-04-06 16:00:00 17.3 7 Noroeste 33 Nordeste 0 -- -- 56
2018-04-06 15:00:00 22 6 Oeste 37 Oeste 0 -- -- 36
2018-04-06 14:00:00 22.2 12 Sudoeste 40 Sudoeste 0 -- -- 35
2018-04-06 13:00:00 22.1 8 Sudeste 39 Nordeste 0 -- -- 36
2018-04-06 12:00:00 21 17 Este 41 Este 0 -- -- 39
2018-04-06 11:00:00 19.8 13 Nordeste 24 Este 0 -- -- 40
2018-04-06 10:00:00 13.1 3 Sudeste 8 Oeste 0 -- -- 69
2018-04-06 09:00:00 9.6 0 Calma 4 Nordeste 0 -- -- 83
2018-04-06 08:00:00 9.9 2 Nordeste 6 Nordeste 0 -- -- 79
2018-04-06 07:00:00 12.3 0 Calma 10 Sudoeste 0 -- -- 68
2018-04-06 06:00:00 15.7 6 Sur 26 Sudoeste 0 -- -- 49
2018-04-06 05:00:00 13.8 4 Noroeste 30 Sudoeste 0 -- -- 58
2018-04-06 04:00:00 17 5 Sur 22 Nordeste 0 -- -- 44
2018-04-06 03:00:00 17.8 8 Este 23 Este 0 -- -- 41
2018-04-06 02:00:00 15.9 5 Sur 25 Sudoeste 0 -- -- 46
2018-04-06 01:00:00 14.8 3 Sudoeste 10 Sudoeste 0 -- -- 51
2018-04-06 00:00:00 16.4 4 Sur 26 Oeste 0 -- -- 46
2018-04-05 23:00:00 17.9 9 Sudoeste 29 Sudoeste 0 -- -- 39
2018-04-05 22:00:00 18.3 13 Sudoeste 38 Sur 0 -- -- 39
2018-04-05 21:00:00 18.5 14 Sudoeste 45 Sudoeste 0 -- -- 40
2018-04-05 20:00:00 19.5 10 Sudoeste 46 Sudoeste 0 -- -- 39
2018-04-05 19:00:00 19.5 14 Sudoeste 36 Sudoeste 0 -- -- 39
2018-04-05 18:00:00 20.1 10 Sudoeste 23 Sudoeste 0 -- -- 38
2018-04-05 17:00:00 19.1 5 Norte 21 Noroeste 0 -- -- 58
2018-04-05 16:00:00 18.8 8 Norte 14 Norte 0 -- -- 53
2018-04-05 15:00:00 18.6 6 Norte 12 Nordeste 0 -- -- 52
2018-04-05 14:00:00 16.6 2 Sudoeste 15 Norte 0 -- -- 60
2018-04-05 13:00:00 15.3 6 Nordeste 14 Norte 0 -- -- 63
2018-04-05 12:00:00 12.6 0 Calma 5 Nordeste 0 -- -- 66
2018-04-05 11:00:00 9.6 2 Nordeste 5 Nordeste 0 -- -- 84
2018-04-05 10:00:00 7.2 2 Este 5 Este 0 -- -- 99
2018-04-05 09:00:00 5.2 0 Calma 4 Nordeste 0 -- -- 100
2018-04-05 08:00:00 5.1 2 Este 7 Norte 0 -- -- 100
2018-04-05 07:00:00 5.3 2 Nordeste 5 Nordeste 0 -- -- 100
2018-04-05 06:00:00 5.6 0 Calma 4 Nordeste 0 -- -- 99
2018-04-05 05:00:00 6.3 0 Calma 5 Nordeste 0 -- -- 99
2018-04-05 04:00:00 6.4 0 Calma 3 Nordeste 0 -- -- 99
2018-04-05 03:00:00 6.9 0 Calma 7 Nordeste 0 -- -- 98
2018-04-05 02:00:00 7.3 3 Nordeste 4 Nordeste 0 -- -- 98
2018-04-05 01:00:00 8.1 2 Nordeste 5 Nordeste 0 -- -- 96
2018-04-05 00:00:00 9.4 3 Nordeste 6 Nordeste 0 -- -- 95
2018-04-04 23:00:00 10.6 0 Calma 5 Nordeste 0 -- -- 94
2018-04-04 22:00:00 10.8 3 Noroeste 5 Nordeste 0.2 -- -- 93
2018-04-04 21:00:00 10.9 2 Norte 11 Nordeste 0 -- -- 92
2018-04-04 20:00:00 11.4 3 Nordeste 16 Nordeste 0.6 -- -- 89
2018-04-04 19:00:00 13.1 4 Norte 17 Nordeste 0.2 -- -- 83
2018-04-04 18:00:00 13.7 5 Norte 26 Oeste 0.6 -- -- 82
2018-04-04 17:00:00 18 10 Oeste 29 Oeste 0 -- -- 46
2018-04-04 16:00:00 17.5 8 Oeste 39 Oeste 0 -- -- 48
2018-04-04 15:00:00 18.7 14 Oeste 33 Noroeste 0 -- -- 41
2018-04-04 14:00:00 18.2 9 Sudoeste 31 Oeste 0 -- -- 44
2018-04-04 13:00:00 17.2 6 Oeste 28 Noroeste 0 -- -- 42
2018-04-04 12:00:00 16.4 7 Oeste 14 Oeste 0 -- -- 44
2018-04-04 11:00:00 15.5 2 Sudeste 21 Este 0 -- -- 49
2018-04-04 10:00:00 12.5 8 Sur 23 Sudoeste 0 -- -- 60
2018-04-04 09:00:00 8.4 0 Calma 10 Norte 0 -- -- 80
2018-04-04 08:00:00 8.1 5 Norte 15 Nordeste 0 -- -- 80
2018-04-04 07:00:00 7.6 0 Calma 8 Oeste 0 -- -- 83
2018-04-04 06:00:00 8.6 0 Calma 10 Sudoeste 0 -- -- 80
2018-04-04 05:00:00 8.3 3 Noroeste 12 Este 0 -- -- 79
2018-04-04 04:00:00 7.4 2 Norte 9 Oeste 0 -- -- 84
2018-04-04 03:00:00 7.2 0 Calma 6 Nordeste 0 -- -- 85
2018-04-04 02:00:00 8.6 0 Calma 5 Nordeste 0 -- -- 77
2018-04-04 01:00:00 10 3 Nordeste 6 Norte 0 -- -- 74
2018-04-04 00:00:00 10.1 0 Calma 8 Nordeste 0 -- -- 74
2018-04-03 23:00:00 11.4 3 Nordeste 19 Nordeste 0 -- -- 68
2018-04-03 22:00:00 13.6 4 Sudeste 31 Sudoeste 0 -- -- 54
2018-04-03 21:00:00 14.6 7 Sudeste 40 Sudoeste 0 -- -- 49
2018-04-03 20:00:00 17 11 Sur 42 Sudoeste 0 -- -- 38
2018-04-03 19:00:00 18.6 13 Sudoeste 42 Sudoeste 0 -- -- 32
2018-04-03 18:00:00 19.4 13 Sudoeste 51 Noroeste 0 -- -- 32
2018-04-03 17:00:00 19.3 12 Sur 45 Sur 0 -- -- 35
2018-04-03 16:00:00 19.2 6 Noroeste 24 Sudoeste 0 -- -- 40
2018-04-03 15:00:00 19.2 11 Sudoeste 31 Oeste 0 -- -- 37
2018-04-03 14:00:00 18.8 8 Sudoeste 31 Noroeste 0 -- -- 35
2018-04-03 13:00:00 17.5 9 Sur 38 Sudoeste 0 -- -- 40
2018-04-03 12:00:00 17.5 6 Sudeste 26 Sudoeste 0 -- -- 39
2018-04-03 11:00:00 15.9 7 Este 21 Este 0 -- -- 47
2018-04-03 10:00:00 14.2 8 Este 26 Nordeste 0 -- -- 55
2018-04-03 09:00:00 12.4 6 Sudeste 24 Sur 0 -- -- 60
2018-04-03 08:00:00 11 14 Norte 22 Norte 0 -- -- 82
2018-04-03 07:00:00 9.6 2 Nordeste 8 Noroeste 0 -- -- 84
2018-04-03 06:00:00 9.7 4 Nordeste 12 Nordeste 0 -- -- 81
2018-04-03 05:00:00 10 4 Nordeste 15 Nordeste 0 -- -- 81
2018-04-03 04:00:00 9.9 3 Nordeste 11 Nordeste 0 -- -- 81
2018-04-03 03:00:00 11 3 Norte 9 Nordeste 0 -- -- 75
2018-04-03 02:00:00 12.5 2 Nordeste 12 Sudeste 0 -- -- 71
2018-04-03 01:00:00 15.1 3 Este 14 Sudoeste 0 -- -- 56
2018-04-03 00:00:00 16.4 5 Sudoeste 17 Oeste 0 -- -- 51
2018-04-02 23:00:00 16.8 3 Sur 15 Oeste 0 -- -- 46
2018-04-02 22:00:00 16.7 3 Sur 19 Sudoeste 0 -- -- 46
2018-04-02 21:00:00 17.8 5 Sur 22 Sudoeste 0 -- -- 40
2018-04-02 20:00:00 18.3 4 Sur 33 Sudoeste 0 -- -- 43
2018-04-02 19:00:00 19.1 7 Sur 22 Sudoeste 0 -- -- 42
2018-04-02 18:00:00 19.9 11 Sudoeste 25 Sudoeste 0 -- -- 44
2018-04-02 17:00:00 19.5 8 Sudoeste 29 Oeste 0 -- -- 45
2018-04-02 16:00:00 19.7 8 Sur 21 Sudeste 0 -- -- 46
2018-04-02 15:00:00 19 8 Sudeste 28 Sur 0 -- -- 47
2018-04-02 14:00:00 16.5 11 Sur 35 Sudoeste 0 -- -- 53
2018-04-02 13:00:00 17.6 5 Sur 20 Este 0 -- -- 48
2018-04-02 12:00:00 17 5 Nordeste 17 Sudeste 0 -- -- 49
2018-04-02 11:00:00 13.1 0 Calma 3 Sudoeste 0 -- -- 78
2018-04-02 10:00:00 10.6 0 Calma 8 Sudoeste 0 -- -- 91
2018-04-02 09:00:00 9.6 0 Calma 6 Sudoeste 0 -- -- 93
2018-04-02 08:00:00 9.3 0 Calma 7 Norte 0 -- -- 94
2018-04-02 07:00:00 9 0 Calma 5 Oeste 0 -- -- 95
2018-04-02 06:00:00 9 0 Calma 5 Noroeste 0 -- -- 95
2018-04-02 05:00:00 9.1 2 Sur 5 Noroeste 0 -- -- 94
2018-04-02 04:00:00 9.2 2 Oeste 6 Norte 0 -- -- 94
2018-04-02 03:00:00 9.2 2 Noroeste 5 Oeste 0 -- -- 94
2018-04-02 02:00:00 9.3 0 Calma 5 Nordeste 0 -- -- 93
2018-04-02 01:00:00 9.7 2 Noroeste 4 Sur 0 -- -- 91
2018-04-02 00:00:00 10.4 2 Oeste 5 Sur 0 -- -- 88
2018-04-01 23:00:00 11.5 0 Calma 4 Nordeste 0 -- -- 83
2018-04-01 22:00:00 13.4 0 Calma 6 Este 0 -- -- 75
2018-04-01 21:00:00 17 3 Nordeste 22 Este 0 -- -- 55
2018-04-01 20:00:00 18.8 5 Sur 23 Oeste 0 -- -- 43
2018-04-01 19:00:00 19.6 3 Nordeste 14 Nordeste 0 -- -- 42
2018-04-01 18:00:00 18.7 4 Este 35 Sudoeste 0 -- -- 45
2018-04-01 17:00:00 18.5 5 Sudoeste 23 Sudoeste 0 -- -- 41
2018-04-01 16:00:00 18.6 7 Sur 27 Sudeste 0 -- -- 43
2018-04-01 15:00:00 17.6 14 Sudoeste 28 Sudoeste 0 -- -- 47
2018-04-01 14:00:00 15.7 10 Sudoeste 25 Sudoeste 0 -- -- 54
2018-04-01 13:00:00 12.2 3 Sur 6 Sudoeste 0 -- -- 73
2018-04-01 12:00:00 11.2 0 Calma 6 Oeste 0 -- -- 75
2018-04-01 11:00:00 9.9 0 Calma 4 Sudoeste 0 -- -- 80
2018-04-01 10:00:00 8.1 0 Calma 8 Nordeste 0 -- -- 90
2018-04-01 09:00:00 7 2 Nordeste 5 Nordeste 0 -- -- 94
2018-04-01 08:00:00 7.5 0 Calma 6 Norte 0 -- -- 89
2018-04-01 07:00:00 7.9 2 Oeste 8 Norte 0 -- -- 87
2018-04-01 06:00:00 7.8 2 Sudoeste 14 Este 0 -- -- 90
2018-04-01 05:00:00 7.6 0 Calma 5 Sur 0 -- -- 93
2018-04-01 04:00:00 7.9 0 Calma 4 Oeste 0 -- -- 93
2018-04-01 03:00:00 7.9 0 Calma 6 Nordeste 0 -- -- 93
2018-04-01 02:00:00 7.7 0 Calma 3 Norte 0 -- -- 95
2018-04-01 01:00:00 7.6 0 Calma 4 Nordeste 0 -- -- 95
2018-04-01 00:00:00 7.6 0 Calma 2 Nordeste 0 -- -- 94
2018-03-31 23:00:00 8.7 0 Calma 2 Nordeste 0 -- -- 91
2018-03-31 22:00:00 9.3 0 Calma 3 Sudoeste 0 -- -- 88
2018-03-31 21:00:00 10 0 Calma 2 Nordeste 0 -- -- 84
2018-03-31 20:00:00 10.7 0 Calma 9 Nordeste 0 -- -- 74
2018-03-31 19:00:00 10.8 7 Nordeste 37 Noroeste 1.2 -- -- 75
2018-03-31 18:00:00 13.2 10 Norte 23 Nordeste 0 -- -- 59
2018-03-31 17:00:00 13 9 Noroeste 23 Sudoeste 0 -- -- 64
2018-03-31 16:00:00 14.5 11 Sudoeste 26 Sudoeste 0 -- -- 50
2018-03-31 15:00:00 13.5 11 Sudoeste 24 Oeste 0 -- -- 52
2018-03-31 14:00:00 13.1 13 Sudoeste 33 Sudoeste 0 -- -- 50
2018-03-31 13:00:00 13 13 Sudoeste 31 Sudoeste 0 -- -- 51
2018-03-31 12:00:00 11.6 10 Oeste 33 Sudoeste 0 -- -- 54
2018-03-31 11:00:00 8.9 4 Este 14 Sudeste 0 -- -- 74
2018-03-31 10:00:00 7 3 Este 13 Sudeste 0 -- -- 83
2018-03-31 09:00:00 5.4 6 Este 19 Este 0 -- -- 91
2018-03-31 08:00:00 6.3 3 Oeste 19 Noroeste 0.2 -- -- 87
2018-03-31 07:00:00 5.6 3 Norte 11 Sur 0 -- -- 94
2018-03-31 06:00:00 6.8 6 Oeste 18 Noroeste 1.2 -- -- 86
2018-03-31 05:00:00 6.9 5 Sudoeste 16 Noroeste 0.4 -- -- 87
2018-03-31 04:00:00 6.8 5 Oeste 25 Noroeste 3.4 -- -- 85
2018-03-31 03:00:00 7.2 8 Noroeste 36 Oeste 1.2 -- -- 81
2018-03-31 02:00:00 7.7 9 Noroeste 51 Sudoeste 2 -- -- 75
2018-03-31 01:00:00 7.3 5 Oeste 32 Sudoeste 2.2 -- -- 78
2018-03-31 00:00:00 8 6 Noroeste 46 Oeste 0.6 -- -- 71
2018-03-30 23:00:00 9.9 15 Oeste 53 Oeste 0 -- -- 53
2018-03-30 22:00:00 8.4 7 Sudeste 19 Este 0 -- -- 61
2018-03-30 21:00:00 8 8 Este 19 Nordeste 0 -- -- 71
2018-03-30 20:00:00 10.1 6 Sudoeste 30 Sur 0 -- -- 62
2018-03-30 19:00:00 12.7 12 Oeste 32 Sudoeste 0 -- -- 42
2018-03-30 18:00:00 12.8 7 Sur 47 Oeste 0 -- -- 46
2018-03-30 17:00:00 14.8 10 Oeste 27 Sur 0 -- -- 36
2018-03-30 16:00:00 14.8 13 Sudoeste 45 Sudoeste 0 -- -- 36
2018-03-30 15:00:00 14.3 17 Sudoeste 55 Sudoeste 0 -- -- 37
2018-03-30 14:00:00 13.7 12 Oeste 30 Oeste 0 -- -- 36
2018-03-30 13:00:00 12.2 10 Sur 38 Sur 0 -- -- 37
2018-03-30 12:00:00 11.8 7 Sudeste 19 Nordeste 0 -- -- 38
2018-03-30 11:00:00 11 8 Sudoeste 30 Sur 0 -- -- 39
2018-03-30 10:00:00 9.1 12 Sudoeste 32 Sur 0 -- -- 42
2018-03-30 09:00:00 3.6 3 Nordeste 14 Nordeste 0 -- -- 83
2018-03-30 08:00:00 4.1 0 Calma 12 Norte 0 -- -- 80
2018-03-30 07:00:00 5.9 4 Nordeste 15 Noroeste 0 -- -- 71
2018-03-30 06:00:00 7.3 3 Noroeste 27 Norte 0 -- -- 62
2018-03-30 05:00:00 7.8 6 Noroeste 26 Sur 0 -- -- 58
2018-03-30 04:00:00 8.8 11 Oeste 49 Oeste 0 -- -- 55
2018-03-30 03:00:00 8.1 11 Noroeste 28 Oeste 0 -- -- 66
2018-03-30 02:00:00 6.7 2 Este 5 Oeste 0 -- -- 97
2018-03-30 01:00:00 7.7 3 Nordeste 6 Este 0.2 -- -- 97
2018-03-30 00:00:00 8 2 Norte 10 Nordeste 0.6 -- -- 95
2018-03-29 23:00:00 8.5 6 Nordeste 14 Oeste 0 -- -- 92
2018-03-29 22:00:00 8.3 0 Calma 6 Noroeste 0 -- -- 94
2018-03-29 21:00:00 8.8 2 Sur 6 Sudoeste 0 -- -- 91
2018-03-29 20:00:00 10.3 2 Nordeste 10 Este 0 -- -- 82
2018-03-29 19:00:00 10.1 3 Sur 16 Nordeste 0.8 -- -- 83
2018-03-29 18:00:00 11.4 6 Noroeste 26 Nordeste 0.2 -- -- 78
2018-03-29 17:00:00 15.9 6 Nordeste 19 Sudoeste 0 -- -- 42
2018-03-29 16:00:00 14.7 10 Sudoeste 27 Oeste 0 -- -- 43
2018-03-29 15:00:00 16 4 Sudoeste 18 Este 0 -- -- 39
2018-03-29 14:00:00 14.3 6 Norte 13 Norte 0 -- -- 50
2018-03-29 13:00:00 14.4 6 Nordeste 13 Este 0 -- -- 49
2018-03-29 12:00:00 12.4 5 Este 21 Este 0 -- -- 63
2018-03-29 11:00:00 8.2 4 Sudeste 10 Nordeste 0 -- -- 81
2018-03-29 10:00:00 6 0 Calma 12 Este 0 -- -- 91
2018-03-29 09:00:00 5.1 0 Calma 5 Nordeste 0 -- -- 97
2018-03-29 08:00:00 5.2 2 Sudeste 9 Sudoeste 0 -- -- 97
2018-03-29 07:00:00 5.7 2 Nordeste 8 Este 0 -- -- 99
2018-03-29 06:00:00 5.8 0 Calma 3 Nordeste 0 -- -- 99
2018-03-29 05:00:00 5.7 0 Calma 3 Nordeste 0 -- -- 98
2018-03-29 04:00:00 6.7 2 Sur 9 Norte 0 -- -- 97
2018-03-29 03:00:00 7.3 0 Calma 4 Nordeste 0 -- -- 98
2018-03-29 02:00:00 7.3 0 Calma 3 Nordeste 0.2 -- -- 97
2018-03-29 01:00:00 7.7 0 Calma 12 Nordeste 0.2 -- -- 94
2018-03-29 00:00:00 8.2 3 Nordeste 10 Norte 0.2 -- -- 93
2018-03-28 23:00:00 8.5 2 Oeste 5 Oeste 0.2 -- -- 94
2018-03-28 22:00:00 8.9 0 Calma 11 Nordeste 2 -- -- 93
2018-03-28 21:00:00 9.5 4 Norte 13 Norte 0.6 -- -- 92
2018-03-28 20:00:00 10.1 4 Nordeste 9 Norte 0.4 -- -- 92
2018-03-28 19:00:00 10.2 3 Oeste 14 Noroeste 1.6 -- -- 89
2018-03-28 18:00:00 10.6 5 Sudoeste 24 Oeste 2.2 -- -- 88
2018-03-28 17:00:00 13.2 12 Norte 33 Noroeste 0.4 -- -- 78
2018-03-28 16:00:00 17 3 Oeste 21 Noroeste 0 -- -- 51
2018-03-28 15:00:00 17 9 Noroeste 24 Noroeste 0 -- -- 51
2018-03-28 14:00:00 16.5 7 Norte 19 Nordeste 0 -- -- 55
2018-03-28 13:00:00 15.3 3 Este 14 Nordeste 0 -- -- 61
2018-03-28 12:00:00 13.8 6 Este 13 Este 0 -- -- 60
2018-03-28 11:00:00 10.4 2 Norte 12 Nordeste 0 -- -- 73
2018-03-28 10:00:00 8.4 3 Este 12 Nordeste 0 -- -- 85
2018-03-28 09:00:00 6.8 4 Este 17 Este 0 -- -- 89
2018-03-28 08:00:00 6.7 5 Nordeste 10 Este 0 -- -- 95
2018-03-28 07:00:00 6.9 0 Calma 5 Nordeste 0 -- -- 95
2018-03-28 06:00:00 7.8 0 Calma 12 Este 0 -- -- 92
2018-03-28 05:00:00 9 0 Calma 9 Sudeste 0 -- -- 89
2018-03-28 04:00:00 10.1 4 Este 12 Nordeste 0 -- -- 88
2018-03-28 03:00:00 10 2 Norte 9 Oeste 0 -- -- 95
2018-03-28 02:00:00 8.9 0 Calma 4 Norte 0 -- -- 97
2018-03-28 01:00:00 8.6 0 Calma 4 Nordeste 0 -- -- 95
2018-03-28 00:00:00 9.6 0 Calma 3 Nordeste 0 -- -- 92
2018-03-27 23:00:00 11.1 0 Calma 5 Este 0 -- -- 88
2018-03-27 22:00:00 13.3 0 Calma 14 Norte 0 -- -- 79
2018-03-27 21:00:00 15.7 4 Nordeste 20 Norte 0 -- -- 69
2018-03-27 20:00:00 19.8 8 Norte 14 Norte 0 -- -- 49
2018-03-27 19:00:00 21.4 9 Norte 24 Nordeste 0 -- -- 47
2018-03-27 18:00:00 21.7 8 Norte 26 Nordeste 0 -- -- 44
2018-03-27 17:00:00 21.6 8 Norte 31 Norte 0 -- -- 43
2018-03-27 16:00:00 21.6 13 Nordeste 27 Nordeste 0 -- -- 48
2018-03-27 15:00:00 21.3 5 Sudoeste 26 Oeste 0 -- -- 47
2018-03-27 14:00:00 20 7 Nordeste 19 Nordeste 0 -- -- 53
2018-03-27 13:00:00 18.3 3 Sudeste 9 Norte 0 -- -- 57
2018-03-27 12:00:00 14.7 3 Oeste 7 Este 0 -- -- 64
2018-03-27 11:00:00 11.2 4 Norte 10 Norte 0 -- -- 76
2018-03-27 10:00:00 8.2 3 Oeste 8 Sudoeste 0 -- -- 90
2018-03-27 09:00:00 6.9 3 Norte 10 Sur 0 -- -- 93
2018-03-27 08:00:00 6.3 2 Oeste 9 Sur 0 -- -- 97
2018-03-27 07:00:00 5.7 0 Calma 7 Este 0 -- -- 98
2018-03-27 06:00:00 5.9 3 Nordeste 9 Norte 0 -- -- 98
2018-03-27 05:00:00 6 0 Calma 6 Norte 0 -- -- 97
2018-03-27 04:00:00 6.6 3 Nordeste 8 Este 0 -- -- 96
2018-03-27 03:00:00 7.3 3 Nordeste 8 Norte 0 -- -- 94
2018-03-27 02:00:00 8.5 0 Calma 10 Este 0 -- -- 89
2018-03-27 01:00:00 9.9 3 Este 12 Sudeste 0 -- -- 83
2018-03-27 00:00:00 10.9 5 Sudeste 18 Sur 0 -- -- 79
2018-03-26 23:00:00 11.2 6 Sudeste 19 Este 0 -- -- 77
2018-03-26 22:00:00 11.2 2 Sur 6 Sur 0 -- -- 85
2018-03-26 21:00:00 11.5 0 Calma 6 Este 0 -- -- 89
2018-03-26 20:00:00 12.2 0 Calma 4 Nordeste 0 -- -- 88
2018-03-26 19:00:00 12.5 0 Calma 9 Norte 0.4 -- -- 86
2018-03-26 18:00:00 13.7 6 Norte 13 Nordeste 0 -- -- 66
2018-03-26 17:00:00 14.9 5 Nordeste 15 Nordeste 0 -- -- 54
2018-03-26 16:00:00 15.7 5 Sudoeste 12 Sur 0 -- -- 49
2018-03-26 15:00:00 14.8 4 Sudeste 14 Oeste 0 -- -- 49
2018-03-26 14:00:00 14.2 4 Oeste 17 Oeste 0 -- -- 51
2018-03-26 13:00:00 12.1 3 Este 14 Este 0 -- -- 59
2018-03-26 12:00:00 9.1 2 Noroeste 5 Noroeste 0 -- -- 77
2018-03-26 11:00:00 7.2 0 Calma 6 Oeste 0 -- -- 87
2018-03-26 10:00:00 5.5 0 Calma 8 Este 0 -- -- 96
2018-03-26 09:00:00 4.6 4 Sudeste 10 Nordeste 0 -- -- 99
2018-03-26 08:00:00 4.3 0 Calma 13 Nordeste 0 -- -- 99
2018-03-26 07:00:00 4 0 Calma 4 Norte 0 -- -- 98
2018-03-26 06:00:00 5.1 0 Calma 3 Norte 0 -- -- 98
2018-03-26 05:00:00 5.9 2 Nordeste 7 Nordeste 0.4 -- -- 97
2018-03-26 04:00:00 6.1 2 Nordeste 9 Este 0.4 -- -- 97
2018-03-26 03:00:00 6.3 3 Nordeste 13 Sudoeste 0.4 -- -- 94
2018-03-26 02:00:00 6.3 2 Sur 14 Sudoeste 0 -- -- 94
2018-03-26 01:00:00 6.8 5 Norte 13 Norte 0 -- -- 91
2018-03-26 00:00:00 7.1 6 Oeste 17 Oeste 0.2 -- -- 89
2018-03-25 23:00:00 6.7 4 Nordeste 7 Este 0.8 -- -- 95
2018-03-25 22:00:00 7.1 3 Nordeste 18 Sudoeste 0.6 -- -- 93
2018-03-25 21:00:00 7.9 6 Oeste 30 Sudoeste 0.4 -- -- 84
2018-03-25 20:00:00 8 8 Oeste 17 Oeste 0 -- -- 84
2018-03-25 19:00:00 7.5 4 Sudoeste 19 Noroeste 1 -- -- 88
2018-03-25 18:00:00 7.1 4 Sudoeste 14 Sur 2.4 -- -- 91
2018-03-25 17:00:00 6.6 5 Sudoeste 15 Sudoeste 3.8 -- -- 91
2018-03-25 16:00:00 6.6 6 Oeste 24 Sudoeste 3.2 -- -- 88
2018-03-25 15:00:00 6.4 3 Oeste 18 Sudoeste 5.4 -- -- 90
2018-03-25 14:00:00 6.1 8 Sudoeste 27 Sudoeste 4.8 -- -- 86
2018-03-25 13:00:00 6.2 5 Oeste 14 Oeste 4.2 -- -- 88
2018-03-25 12:00:00 5.8 0 Calma 27 Oeste 5.6 -- -- 90
2018-03-25 11:00:00 6.6 4 Oeste 26 Oeste 3.6 -- -- 83
2018-03-25 10:00:00 8.1 7 Oeste 27 Oeste 0.8 -- -- 70
2018-03-25 09:00:00 8.6 11 Sudoeste 27 Sur 0 -- -- 60
2018-03-25 08:00:00 8.3 8 Oeste 19 Oeste 0 -- -- 65
2018-03-25 07:00:00 8.3 8 Oeste 23 Noroeste 0 -- -- 69
2018-03-25 06:00:00 7.6 3 Norte 15 Oeste 0 -- -- 76
2018-03-25 05:00:00 8.1 3 Oeste 21 Noroeste 0 -- -- 70
2018-03-25 03:00:00 8.4 3 Noroeste 21 Sudoeste 0 -- -- 66
2018-03-25 01:00:00 8.4 7 Noroeste 27 Oeste 0 -- -- 68
2018-03-25 00:00:00 7.5 5 Norte 27 Oeste 0 -- -- 79
2018-03-24 23:00:00 7.4 6 Norte 30 Oeste 0 -- -- 79
2018-03-24 22:00:00 8.2 10 Oeste 30 Noroeste 0.8 -- -- 70
2018-03-24 21:00:00 8.2 4 Norte 30 Oeste 0.2 -- -- 79
2018-03-24 20:00:00 8.3 11 Oeste 26 Sudoeste 0.2 -- -- 75
2018-03-24 19:00:00 7.8 4 Oeste 31 Oeste 2.4 -- -- 86
2018-03-24 18:00:00 8.4 10 Oeste 30 Sudoeste 1 -- -- 82
2018-03-24 17:00:00 8.6 14 Sudoeste 37 Sudoeste 2.2 -- -- 82
2018-03-24 16:00:00 8.8 11 Oeste 27 Oeste 1.8 -- -- 84
2018-03-24 15:00:00 7.8 4 Norte 35 Oeste 4.6 -- -- 90
2018-03-24 14:00:00 8.4 14 Oeste 53 Oeste 3.2 -- -- 86
2018-03-24 13:00:00 8.3 13 Sudoeste 37 Sudoeste 3.4 -- -- 87
2018-03-24 12:00:00 8 9 Sudoeste 46 Sudoeste 4 -- -- 88
2018-03-24 11:00:00 7.4 6 Noroeste 39 Sudoeste 3.2 -- -- 86
2018-03-24 10:00:00 6.8 10 Oeste 38 Oeste 4.8 -- -- 85
2018-03-24 09:00:00 7.2 8 Oeste 47 Sudoeste 2.4 -- -- 80
2018-03-24 08:00:00 8.5 14 Oeste 62 Sudoeste 0.2 -- -- 68
2018-03-24 07:00:00 8.6 18 Oeste 58 Oeste 0 -- -- 62
2018-03-24 06:00:00 7.4 12 Sudoeste 53 Oeste 0.6 -- -- 71
2018-03-24 05:00:00 8.1 10 Oeste 40 Oeste 0 -- -- 64
2018-03-24 04:00:00 8.4 15 Oeste 41 Sur 0.2 -- -- 59
2018-03-24 03:00:00 5.5 6 Nordeste 37 Oeste 2.4 -- -- 87
2018-03-24 02:00:00 8.9 16 Oeste 37 Oeste 0.2 -- -- 59
2018-03-24 01:00:00 8.7 11 Oeste 38 Oeste 0 -- -- 56
2018-03-24 00:00:00 7.5 9 Noroeste 41 Oeste 0.6 -- -- 75
2018-03-23 23:00:00 9.1 14 Oeste 38 Oeste 0 -- -- 55
2018-03-23 22:00:00 9.2 5 Nordeste 32 Sur 0 -- -- 61
2018-03-23 21:00:00 8.9 14 Sudoeste 54 Noroeste 2.2 -- -- 67
2018-03-23 20:00:00 10.1 12 Noroeste 48 Norte 0.6 -- -- 77
2018-03-23 19:00:00 16 6 Sudeste 15 Sudoeste 0 -- -- 45
2018-03-23 18:00:00 17 6 Sudeste 24 Sudoeste 0 -- -- 40
2018-03-23 17:00:00 18 4 Sur 18 Sudoeste 0 -- -- 42
2018-03-23 16:00:00 18.4 5 Sur 14 Oeste 0 -- -- 42
2018-03-23 15:00:00 16.5 0 Calma 5 Nordeste 0 -- -- 68
2018-03-23 14:00:00 15.1 3 Nordeste 15 Nordeste 0 -- -- 73
2018-03-23 13:00:00 14.3 0 Calma 12 Sudeste 0 -- -- 74
2018-03-23 12:00:00 11.9 3 Noroeste 12 Nordeste 0 -- -- 85
2018-03-23 11:00:00 9.8 3 Este 8 Nordeste 0 -- -- 90
2018-03-23 10:00:00 8.9 4 Sudoeste 9 Oeste 0 -- -- 92
2018-03-23 09:00:00 8 0 Calma 7 Noroeste 0 -- -- 95
2018-03-23 08:00:00 7.2 2 Sudoeste 7 Sudoeste 0 -- -- 97
2018-03-23 07:00:00 6.8 3 Oeste 8 Oeste 0.2 -- -- 97
2018-03-23 06:00:00 6.3 0 Calma 9 Sudoeste 0.8 -- -- 95
2018-03-23 05:00:00 6.5 3 Sudoeste 9 Este 0.6 -- -- 90
2018-03-23 04:00:00 6.5 4 Oeste 8 Sudoeste 0.6 -- -- 89
2018-03-23 03:00:00 6.9 3 Sudoeste 6 Norte 0 -- -- 84
2018-03-23 02:00:00 7.4 3 Sur 9 Nordeste 0 -- -- 79
2018-03-23 01:00:00 7.2 4 Nordeste 9 Nordeste 0 -- -- 70
2018-03-23 00:00:00 6.8 0 Calma 8 Nordeste 0 -- -- 80
2018-03-22 23:00:00 6.3 2 Nordeste 5 Nordeste 0 -- -- 83
2018-03-22 22:00:00 6.6 0 Calma 4 Nordeste 0 -- -- 83
2018-03-22 21:00:00 7.7 0 Calma 3 Nordeste 0 -- -- 79
2018-03-22 20:00:00 9.4 0 Calma 6 Sudoeste 0 -- -- 69
2018-03-22 19:00:00 13.2 3 Sudoeste 10 Oeste 0 -- -- 53
2018-03-22 18:00:00 16.7 4 Este 7 Este 0 -- -- 33
2018-03-22 17:00:00 16.2 4 Nordeste 17 Norte 0 -- -- 34
2018-03-22 16:00:00 15.5 7 Nordeste 17 Nordeste 0 -- -- 36
2018-03-22 15:00:00 14.6 8 Norte 13 Norte 0 -- -- 38
2018-03-22 14:00:00 13.4 5 Nordeste 8 Este 0 -- -- 40
2018-03-22 13:00:00 11.9 3 Oeste 10 Este 0 -- -- 39
2018-03-22 12:00:00 10.5 5 Sur 13 Norte 0 -- -- 47
2018-03-22 11:00:00 8.8 6 Nordeste 14 Nordeste 0 -- -- 54
2018-03-22 10:00:00 5.4 2 Sudeste 8 Oeste 0 -- -- 69
2018-03-22 09:00:00 2 2 Sudoeste 6 Sudoeste 0 -- -- 92
2018-03-22 08:00:00 0.8 0 Calma 8 Sur 0 -- -- 97
2018-03-22 07:00:00 0.4 0 Calma 4 Este 0 -- -- 97
2018-03-22 06:00:00 0.9 0 Calma 4 Nordeste 0 -- -- 97
2018-03-22 05:00:00 1.6 0 Calma 5 Nordeste 0 -- -- 95
2018-03-22 04:00:00 2.6 0 Calma 5 Norte 0 -- -- 94
2018-03-22 03:00:00 3.2 0 Calma 4 Norte 0 -- -- 93
2018-03-22 02:00:00 4.1 2 Nordeste 5 Nordeste 0 -- -- 91
2018-03-22 01:00:00 4.8 2 Norte 4 Norte 0 -- -- 88
2018-03-22 00:00:00 5 0 Calma 4 Nordeste 0 -- -- 87